Time;durP1;ratioP1;P1;durP2;ratioP2;P2;SDS_P1;SDS_P2;PMS_P1;PMS_P2;Temp;Humidity;BMP_temperature;BMP_pressure;BME280_temperature;BME280_humidity;BME280_pressure;Samples;Min_cycle;Max_cycle;Signal;HPM_P1;HPM_P2
2022/01/20 00:02:02;;;;;;;;;;;3.30;99.90;;;2.26;78.45;96134.16;10474795;28;1999;-78
2022/01/20 00:23:16;;;;;;;;;;;3.40;99.90;;;2.28;77.89;96140.88;10475270;28;2048;-77
2022/01/20 00:28:26;;;;;;;;;;;3.40;99.90;;;2.28;77.99;96137.41;10478114;28;1903;-77
2022/01/20 00:33:36;;;;;;;;;;;3.30;99.90;;;2.32;78.31;96131.47;10466663;28;1930;-79
2022/01/20 00:38:39;;;;;;;;;;;3.30;99.90;;;2.29;78.04;96136.38;10471909;28;2062;-78
2022/01/20 00:43:42;;;;;;;;;;;3.30;99.90;;;2.34;78.18;96144.53;10475230;28;1985;-76
2022/01/20 00:48:45;;;;;;;;;;;3.40;99.90;;;2.30;77.67;96132.72;10475192;28;1890;-78
2022/01/20 00:53:51;;;;;;;;;;;3.40;99.90;;;2.32;77.75;96141.28;10468553;28;2003;-78
2022/01/20 00:58:54;;;;;;;;;;;3.60;99.90;;;2.32;78.22;96143.94;10468448;28;1959;-77
2022/01/20 01:03:57;;;;;;;;;;;3.40;99.90;;;2.30;77.56;96143.34;10471887;28;1997;-76
2022/01/20 01:09:01;;;;;;;;;;;3.40;99.90;;;2.35;77.12;96144.28;10470909;28;2021;-79
2022/01/20 01:14:05;;;;;;;;;;;3.40;99.90;;;2.37;76.82;96152.06;10473270;28;1934;-79
2022/01/20 01:24:29;;;;;;;;;;;3.40;99.90;;;2.39;76.35;96145.50;10470776;28;2001;-76
2022/01/20 01:29:52;;;;;;;;;;;3.50;99.90;;;2.41;76.58;96147.94;10480858;28;1983;-79
2022/01/20 01:34:55;;;;;;;;;;;3.50;99.90;;;2.44;76.65;96139.56;10480579;28;2000;-79
2022/01/20 01:39:58;;;;;;;;;;;3.50;99.90;;;2.46;76.34;96132.19;10480231;28;2023;-77
2022/01/20 01:45:12;;;;;;;;;;;3.50;99.90;;;2.44;76.43;96123.66;10482434;28;2004;-77
2022/01/20 01:50:15;;;;;;;;;;;3.50;99.90;;;2.47;76.51;96125.06;10501703;28;2007;-79
2022/01/20 01:55:18;;;;;;;;;;;3.50;99.90;;;2.49;75.74;96121.19;10506645;28;2018;-80
2022/01/20 02:00:21;;;;;;;;;;;3.50;99.90;;;2.41;76.59;96116.09;10524393;28;1902;-78
2022/01/20 02:05:24;;;;;;;;;;;3.50;99.90;;;2.44;76.46;96121.00;10549617;28;1942;-77
2022/01/20 02:21:12;;;;;;;;;;;3.50;99.90;;;2.43;77.37;96122.03;10482754;28;1975;-76
2022/01/20 02:26:16;;;;;;;;;;;3.50;99.90;;;2.40;78.55;96114.47;10469251;28;1836;-79
2022/01/20 02:31:19;;;;;;;;;;;3.50;99.90;;;2.27;83.77;96123.34;10479522;28;1956;-79
2022/01/20 02:36:22;;;;;;;;;;;3.60;99.90;;;1.96;87.79;96115.34;10475087;28;1982;-78
2022/01/20 02:46:47;;;;;;;;;;;2.90;99.90;;;1.73;92.71;96107.91;10493930;28;1947;-77
2022/01/20 02:51:50;;;;;;;;;;;2.80;99.90;;;1.78;90.98;96097.47;10490356;28;1920;-78
2022/01/20 02:56:54;;;;;;;;;;;2.80;99.90;;;1.72;89.73;96091.19;10476692;28;1950;-79
2022/01/20 03:01:57;;;;;;;;;;;2.80;99.90;;;1.74;90.78;96096.28;10494642;28;2111;-78
2022/01/20 03:07:00;;;;;;;;;;;2.80;99.90;;;1.73;90.80;96084.03;10495266;28;1900;-78
2022/01/20 03:12:03;;;;;;;;;;;2.80;99.90;;;1.72;89.61;96077.09;10503159;28;1902;-77
2022/01/20 03:17:06;;;;;;;;;;;3.00;99.90;;;1.79;89.30;96069.97;10492810;28;1911;-80
2022/01/20 03:22:09;;;;;;;;;;;2.90;99.90;;;1.86;88.49;96071.53;10491976;28;2132;-78
2022/01/20 03:27:13;;;;;;;;;;;3.00;99.90;;;1.82;90.70;96077.47;10473871;28;2003;-76
2022/01/20 03:32:16;;;;;;;;;;;2.90;99.90;;;1.73;93.40;96076.09;10480093;28;1924;-77
2022/01/20 03:37:18;;;;;;;;;;;2.90;99.90;;;1.61;95.20;96087.34;10484407;28;2019;-78
2022/01/20 03:42:21;;;;;;;;;;;2.70;99.90;;;1.48;97.08;96098.00;10495784;28;1932;-77
2022/01/20 03:47:25;;;;;;;;;;;2.60;99.90;;;1.46;98.24;96091.25;10519751;28;1879;-78
2022/01/20 03:52:28;;;;;;;;;;;2.60;99.90;;;1.37;100.00;96101.28;10518719;28;1849;-78
2022/01/20 03:57:31;;;;;;;;;;;2.50;99.90;;;1.30;100.00;96103.94;10530920;28;1295;-78
2022/01/20 04:02:34;;;;;;;;;;;2.40;99.90;;;1.10;100.00;96113.75;10525966;28;2295;-76
2022/01/20 04:07:38;;;;;;;;;;;2.30;99.90;;;0.79;100.00;96114.38;10524650;28;1523;-79
2022/01/20 04:12:41;;;;;;;;;;;2.00;99.90;;;0.60;100.00;96112.56;10534809;28;1421;-78
2022/01/20 04:17:51;;;;;;;;;;;1.90;99.90;;;0.49;100.00;96120.06;10523319;28;1828;-76
2022/01/20 04:22:53;;;;;;;;;;;1.60;99.90;;;0.44;100.00;96101.34;10530933;28;2004;-77
2022/01/20 04:27:56;;;;;;;;;;;1.50;99.90;;;0.40;100.00;96104.59;10500427;28;1833;-79
2022/01/20 04:33:00;;;;;;;;;;;1.40;99.90;;;0.37;100.00;96097.06;10465276;28;2044;-75
2022/01/20 04:38:03;;;;;;;;;;;1.30;99.90;;;0.25;100.00;96095.03;10466203;28;1976;-78
2022/01/20 04:43:06;;;;;;;;;;;1.30;99.90;;;0.14;100.00;96089.50;10470519;28;1975;-76
2022/01/20 04:48:27;;;;;;;;;;;1.20;99.90;;;0.07;100.00;96097.44;10465154;28;1969;-76
2022/01/20 04:58:50;;;;;;;;;;;1.10;99.90;;;0.21;100.00;96100.91;10490284;28;1931;-77
2022/01/20 05:03:55;;;;;;;;;;;1.10;99.90;;;0.18;100.00;96101.28;10463840;28;2046;-78
2022/01/20 05:08:58;;;;;;;;;;;1.20;99.90;;;0.20;100.00;96109.88;10485421;28;1904;-77
2022/01/20 05:14:01;;;;;;;;;;;1.10;99.90;;;0.14;100.00;96102.72;10468761;28;1958;-78
2022/01/20 05:19:05;;;;;;;;;;;1.10;99.90;;;0.17;100.00;96097.84;10466281;28;1911;-77
2022/01/20 05:24:08;;;;;;;;;;;1.20;99.90;;;0.21;100.00;96095.63;10471185;28;1984;-78
2022/01/20 05:29:11;;;;;;;;;;;1.20;99.90;;;0.24;100.00;96100.50;10470624;28;1885;-78
2022/01/20 05:34:15;;;;;;;;;;;1.20;99.90;;;0.20;100.00;96099.28;10470647;28;1978;-79
2022/01/20 05:39:18;;;;;;;;;;;1.10;99.90;;;0.22;100.00;96092.78;10476939;28;1887;-78
2022/01/20 05:44:21;;;;;;;;;;;1.10;99.90;;;0.26;100.00;96094.00;10474669;28;2316;-78
2022/01/20 05:49:25;;;;;;;;;;;1.30;99.90;;;0.35;100.00;96097.25;10471967;28;1954;-77
2022/01/20 05:54:29;;;;;;;;;;;0.80;99.90;;;0.41;100.00;96088.53;10466435;28;2082;-77
2022/01/20 05:59:32;;;;;;;;;;;1.30;99.90;;;0.43;100.00;96101.53;10472730;28;1966;-78
2022/01/20 06:04:35;;;;;;;;;;;1.30;99.90;;;0.47;100.00;96100.94;10476193;28;2105;-80
2022/01/20 06:09:39;;;;;;;;;;;1.40;99.90;;;0.51;100.00;96102.19;10476203;28;1829;-79
2022/01/20 06:14:42;;;;;;;;;;;1.40;99.90;;;0.52;100.00;96109.09;10482280;28;2087;-80
2022/01/20 06:19:45;;;;;;;;;;;1.40;99.90;;;0.56;100.00;96103.38;10479440;28;1916;-78
2022/01/20 06:24:48;;;;;;;;;;;1.50;99.90;;;0.59;100.00;96116.22;10478280;28;1914;-78
2022/01/20 06:29:52;;;;;;;;;;;1.40;99.90;;;0.56;100.00;96113.97;10480393;28;1900;-80
2022/01/20 06:34:55;;;;;;;;;;;1.60;99.90;;;0.67;100.00;96113.38;10480059;28;2002;-81
2022/01/20 06:39:59;;;;;;;;;;;1.50;99.90;;;0.69;100.00;96106.03;10484906;28;1968;-77
2022/01/20 06:45:02;;;;;;;;;;;1.60;99.90;;;0.73;100.00;96101.97;10488923;28;2128;-80
2022/01/20 06:50:06;;;;;;;;;;;1.60;99.90;;;0.71;100.00;96096.06;10491649;28;2000;-79
2022/01/20 06:55:10;;;;;;;;;;;1.60;99.90;;;0.71;100.00;96090.78;10516169;28;2070;-77
2022/01/20 07:00:13;;;;;;;;;;;1.70;99.90;;;0.74;100.00;96107.06;10498572;28;1931;-77
2022/01/20 07:05:16;;;;;;;;;;;1.70;99.90;;;0.76;100.00;96099.75;10496462;28;2086;-77
2022/01/20 07:10:19;;;;;;;;;;;1.70;99.90;;;0.90;100.00;96110.31;10503059;28;1965;-80
2022/01/20 07:15:22;;;;;;;;;;;1.80;99.90;;;0.88;100.00;96097.28;10504287;28;1986;-79
2022/01/20 07:20:25;;;;;;;;;;;1.80;99.90;;;0.91;100.00;96102.16;10499087;28;1686;-77
2022/01/20 07:25:28;;;;;;;;;;;1.80;99.90;;;0.96;100.00;96096.28;10507834;28;2191;-79
2022/01/20 07:30:31;;;;;;;;;;;1.90;99.90;;;1.01;100.00;96102.53;10478569;28;2013;-79
2022/01/20 07:35:34;;;;;;;;;;;1.90;99.90;;;1.08;100.00;96106.03;10491657;28;2439;-80
2022/01/20 07:40:37;;;;;;;;;;;2.10;99.90;;;1.05;100.00;96121.50;10490472;28;2146;-79
2022/01/20 07:45:40;;;;;;;;;;;2.00;99.90;;;1.04;100.00;96127.81;10511336;28;2009;-79
2022/01/20 07:50:43;;;;;;;;;;;2.00;99.90;;;1.11;100.00;96125.97;10483831;28;2393;-80
2022/01/20 07:55:46;;;;;;;;;;;2.00;99.90;;;1.08;100.00;96129.84;10483151;28;2308;-79
2022/01/20 08:00:49;;;;;;;;;;;2.30;99.90;;;1.06;100.00;96131.88;10493297;28;2457;-77
2022/01/20 08:05:52;;;;;;;;;;;2.00;99.90;;;0.96;100.00;96144.72;10496458;28;2359;-79
2022/01/20 08:10:55;;;;;;;;;;;2.00;99.90;;;1.00;100.00;96148.56;10512904;28;1711;-78
2022/01/20 08:15:58;;;;;;;;;;;1.90;99.90;;;1.11;100.00;96160.41;10508722;28;1928;-77
2022/01/20 08:21:01;;;;;;;;;;;2.00;99.90;;;1.19;100.00;96146.13;10508343;28;1928;-79
2022/01/20 08:26:04;;;;;;;;;;;2.10;99.90;;;1.25;100.00;96150.59;10489345;28;1970;-80
2022/01/20 08:31:07;;;;;;;;;;;2.30;99.90;;;1.35;100.00;96156.31;10505193;28;1943;-78
2022/01/20 08:36:11;;;;;;;;;;;2.40;99.90;;;1.30;100.00;96169.34;10539039;28;1542;-80
2022/01/20 08:41:14;;;;;;;;;;;2.50;99.90;;;1.32;100.00;96172.59;10547766;28;1456;-78
2022/01/20 08:46:21;;;;;;;;;;;2.40;99.90;;;1.40;100.00;96171.56;10532825;28;1918;-78
2022/01/20 08:51:24;;;;;;;;;;;2.40;99.90;;;1.34;100.00;96183.81;10508989;28;1713;-79
2022/01/20 08:56:27;;;;;;;;;;;3.10;99.90;;;1.11;100.00;96188.72;10489448;28;1557;-79
2022/01/20 09:01:31;;;;;;;;;;;2.20;99.90;;;1.12;100.00;96214.97;10501964;28;2063;-82
2022/01/20 09:06:34;;;;;;;;;;;2.20;99.90;;;1.20;100.00;96200.72;10482204;28;2052;-79
2022/01/20 09:11:49;;;;;;;;;;;2.10;99.90;;;1.23;100.00;96193.19;10486999;28;2022;-77
2022/01/20 09:16:52;;;;;;;;;;;2.10;99.90;;;1.31;100.00;96186.84;10493888;28;1892;-79
2022/01/20 09:21:55;;;;;;;;;;;2.20;99.90;;;1.45;100.00;96190.31;10496463;28;1458;-79
2022/01/20 09:26:59;;;;;;;;;;;2.20;99.90;;;1.54;100.00;96204.97;10494110;28;1927;-82
2022/01/20 09:32:04;;;;;;;;;;;2.40;99.90;;;1.54;100.00;96203.13;10494179;28;1862;-78
2022/01/20 09:37:08;;;;;;;;;;;2.40;99.90;;;1.58;100.00;96217.59;10504206;28;1926;-80
2022/01/20 09:42:11;;;;;;;;;;;2.50;99.90;;;1.83;100.00;96211.63;10486628;28;1984;-79
2022/01/20 09:47:14;;;;;;;;;;;2.60;99.90;;;2.02;100.00;96226.66;10494583;28;1941;-80
2022/01/20 09:52:17;;;;;;;;;;;2.70;99.90;;;2.30;100.00;96193.75;10505595;28;2035;-82
2022/01/20 09:57:20;;;;;;;;;;;3.00;99.90;;;2.39;100.00;96203.06;10504961;28;1851;-79
2022/01/20 10:02:23;;;;;;;;;;;3.20;99.90;;;2.60;100.00;96208.06;10492799;28;1959;-82
2022/01/20 10:07:27;;;;;;;;;;;3.60;99.90;;;2.66;100.00;96215.16;10511650;28;2018;-80
2022/01/20 10:12:30;;;;;;;;;;;3.40;99.90;;;2.46;100.00;96217.13;10490679;28;2446;-76
2022/01/20 10:17:33;;;;;;;;;;;3.50;99.90;;;2.33;100.00;96227.78;10495457;28;2240;-79
2022/01/20 10:22:36;;;;;;;;;;;3.30;99.90;;;2.37;100.00;96218.41;10498084;28;2038;-80
2022/01/20 10:27:39;;;;;;;;;;;3.30;99.90;;;2.52;100.00;96226.88;10490039;28;2034;-80
2022/01/20 10:32:42;;;;;;;;;;;3.30;99.90;;;2.51;100.00;96214.66;10499147;28;2468;-78
2022/01/20 10:37:45;;;;;;;;;;;3.40;99.90;;;2.56;100.00;96206.88;10490333;28;1992;-78
2022/01/20 10:42:50;;;;;;;;;;;3.40;99.90;;;2.70;100.00;96212.91;10484910;28;2056;-77
2022/01/20 10:47:54;;;;;;;;;;;3.50;99.90;;;2.86;99.46;96211.56;10479854;28;1935;-79
2022/01/20 10:52:57;;;;;;;;;;;3.60;99.90;;;2.74;100.00;96216.78;10488486;28;1667;-78
2022/01/20 10:58:00;;;;;;;;;;;3.60;99.90;;;2.99;99.05;96195.56;10525952;28;2005;-81
2022/01/20 11:03:03;;;;;;;;;;;3.70;99.90;;;2.83;98.60;96174.84;10527194;28;1891;-81
2022/01/20 11:08:06;;;;;;;;;;;3.70;99.90;;;2.94;96.91;96195.41;10534842;28;1510;-77
2022/01/20 11:13:10;;;;;;;;;;;3.70;99.90;;;3.05;95.68;96200.00;10551573;28;1896;-82
2022/01/20 11:18:13;;;;;;;;;;;3.90;99.90;;;3.17;94.71;96200.94;10545620;28;1622;-80
2022/01/20 11:23:16;;;;;;;;;;;4.00;99.90;;;3.16;94.27;96185.22;10544585;28;1886;-80
2022/01/20 11:28:19;;;;;;;;;;;4.00;99.90;;;3.19;93.98;96182.94;10536894;28;1879;-80
2022/01/20 11:33:26;;;;;;;;;;;4.00;99.90;;;3.13;93.60;96170.53;10542099;28;1608;-76
2022/01/20 11:38:29;;;;;;;;;;;4.10;99.90;;;2.82;94.75;96168.72;10527342;28;1345;-78
2022/01/20 11:43:32;;;;;;;;;;;3.90;99.90;;;2.88;93.31;96148.47;10508179;28;1894;-77
2022/01/20 11:48:35;;;;;;;;;;;3.70;99.90;;;3.16;92.61;96143.53;10484643;28;1507;-78
2022/01/20 11:53:41;;;;;;;;;;;3.80;99.90;;;3.15;90.06;96128.63;10491366;28;1980;-78
2022/01/20 11:58:45;;;;;;;;;;;4.00;99.90;;;3.36;88.71;96119.44;10502794;28;2059;-79
2022/01/20 12:03:48;;;;;;;;;;;4.10;99.90;;;3.67;88.05;96129.13;10532925;28;2020;-79
2022/01/20 12:08:52;;;;;;;;;;;4.40;99.90;;;3.80;87.40;96123.66;10492499;28;1993;-78
2022/01/20 12:13:55;;;;;;;;;;;4.70;99.90;;;3.69;85.16;96120.91;10492914;28;1986;-79
2022/01/20 12:18:58;;;;;;;;;;;4.60;99.90;;;3.91;86.42;96131.94;10521356;28;2039;-80
2022/01/20 12:24:01;;;;;;;;;;;4.60;99.90;;;3.67;85.93;96113.16;10511013;28;2038;-78
2022/01/20 12:29:05;;;;;;;;;;;4.70;99.90;;;3.44;88.77;96099.75;10509405;28;1968;-78
2022/01/20 12:34:09;;;;;;;;;;;4.50;99.90;;;3.31;88.26;96105.16;10513518;28;1884;-79
2022/01/20 12:39:12;;;;;;;;;;;4.30;99.90;;;3.02;91.56;96088.91;10484790;28;1927;-76
2022/01/20 12:44:15;;;;;;;;;;;4.00;99.90;;;2.60;95.52;96088.63;10475070;28;1958;-80
2022/01/20 12:49:19;;;;;;;;;;;3.80;99.90;;;2.53;95.44;96079.91;10471807;28;2004;-79
2022/01/20 12:54:26;;;;;;;;;;;3.60;99.90;;;2.32;95.56;96088.22;10482768;28;2055;-79
2022/01/20 12:59:29;;;;;;;;;;;3.50;99.90;;;2.07;98.34;96102.22;10473146;28;2046;-81
2022/01/20 13:04:35;;;;;;;;;;;3.20;99.90;;;2.01;98.28;96102.25;10468258;28;2005;-78
2022/01/20 13:09:38;;;;;;;;;;;3.10;99.90;;;1.93;99.72;96105.97;10468391;28;2004;-78
2022/01/20 13:14:43;;;;;;;;;;;3.00;99.90;;;2.00;98.57;96114.72;10478515;28;1936;-79
2022/01/20 13:19:48;;;;;;;;;;;3.00;99.90;;;2.17;98.88;96094.63;10476442;28;1939;-79
2022/01/20 13:24:51;;;;;;;;;;;3.10;99.90;;;2.63;100.00;96095.34;10473056;28;2144;-77
2022/01/20 13:29:54;;;;;;;;;;;3.40;99.90;;;2.56;96.93;96092.75;10483919;28;1883;-79
2022/01/20 13:34:57;;;;;;;;;;;3.60;99.90;;;2.42;96.62;96078.78;10469470;28;2003;-79
2022/01/20 13:40:02;;;;;;;;;;;3.50;99.90;;;2.53;97.46;96081.75;10476685;28;1987;-79
2022/01/20 13:45:12;;;;;;;;;;;3.50;99.90;;;2.40;97.21;96091.41;10465681;28;1978;-80
2022/01/20 13:50:16;;;;;;;;;;;3.70;99.90;;;2.23;100.00;96082.38;10483844;28;2018;-78
2022/01/20 13:55:19;;;;;;;;;;;3.30;99.90;;;1.94;100.00;96086.38;10465016;28;2000;-79
2022/01/20 14:00:22;;;;;;;;;;;3.10;99.90;;;1.93;100.00;96099.88;10468886;28;1928;-76
2022/01/20 14:05:24;;;;;;;;;;;2.90;99.90;;;2.14;100.00;96103.00;10477059;28;1991;-77
2022/01/20 14:10:27;;;;;;;;;;;3.00;99.90;;;2.19;98.10;96114.81;10483564;28;1959;-78
2022/01/20 14:15:30;;;;;;;;;;;3.10;99.90;;;2.23;96.67;96116.84;10466824;28;1939;-78
2022/01/20 14:20:38;;;;;;;;;;;3.20;99.90;;;2.24;95.94;96123.78;10473971;28;2181;-78
2022/01/20 14:25:42;;;;;;;;;;;3.20;99.90;;;2.27;96.22;96131.28;10491003;28;1976;-79
2022/01/20 14:30:45;;;;;;;;;;;3.20;99.90;;;2.01;96.06;96140.19;10503332;28;2122;-77
2022/01/20 14:35:49;;;;;;;;;;;3.10;99.90;;;1.98;98.69;96127.38;10499012;28;2111;-80
2022/01/20 14:40:55;;;;;;;;;;;3.00;99.90;;;1.89;99.15;96120.66;10503399;28;1936;-78
2022/01/20 14:45:58;;;;;;;;;;;3.00;99.90;;;1.91;99.81;96129.25;10502317;28;1919;-77
2022/01/20 14:51:04;;;;;;;;;;;3.40;99.90;;;1.88;99.99;96134.94;10479086;28;1988;-76
2022/01/20 14:56:06;;;;;;;;;;;2.90;99.90;;;2.00;100.00;96135.91;10484685;28;1952;-78
2022/01/20 15:01:09;;;;;;;;;;;3.00;99.90;;;1.82;100.00;96139.25;10486593;28;1919;-76
2022/01/20 15:06:13;;;;;;;;;;;3.00;99.90;;;1.55;100.00;96151.78;10490896;28;2076;-77
2022/01/20 15:11:16;;;;;;;;;;;2.70;99.90;;;1.32;100.00;96154.06;10486163;28;2066;-77
2022/01/20 15:16:19;;;;;;;;;;;2.40;99.90;;;1.08;100.00;96171.38;10491210;28;2041;-79
2022/01/20 15:21:22;;;;;;;;;;;2.30;99.90;;;0.68;100.00;96219.00;10486636;28;1982;-79
2022/01/20 15:26:25;;;;;;;;;;;2.00;99.90;;;-0.67;100.00;96219.59;10489996;28;2264;-78
2022/01/20 15:31:28;;;;;;;;;;;1.60;99.90;;;-0.75;100.00;96240.06;10503228;28;1988;-81
2022/01/20 15:36:32;;;;;;;;;;;0.50;99.90;;;-0.87;100.00;96230.00;10513040;28;2009;-82
2022/01/20 15:41:35;;;;;;;;;;;0.20;99.90;;;-0.75;100.00;96216.28;10513869;28;1948;-84
2022/01/20 15:46:43;;;;;;;;;;;0.30;99.90;;;-0.68;100.00;96217.97;10532746;28;1937;-80
2022/01/20 15:57:39;;;;;;;;;;;0.30;99.90;;;-0.70;100.00;96229.72;10528838;28;1467;-83
2022/01/20 16:02:47;;;;;;;;;;;0.30;99.90;;;-0.64;100.00;96232.41;10526998;28;1696;-80
2022/01/20 16:08:13;;;;;;;;;;;1.20;99.90;;;-0.59;100.00;96237.94;10530656;28;1955;-80
2022/01/20 16:13:36;;;;;;;;;;;1.10;99.90;;;-0.58;100.00;96244.84;10529240;28;1696;-81
2022/01/20 16:18:40;;;;;;;;;;;0.30;99.90;;;-0.61;100.00;96249.69;10500589;28;1942;-83
2022/01/20 16:23:44;;;;;;;;;;;0.40;99.90;;;-0.59;100.00;96251.13;10500261;28;1943;-82
2022/01/20 16:28:47;;;;;;;;;;;0.50;99.90;;;-0.68;100.00;96254.94;10491225;28;1998;-80
2022/01/20 16:33:51;;;;;;;;;;;0.40;99.90;;;-0.68;100.00;96249.66;10496839;28;2048;-81
2022/01/20 16:38:54;;;;;;;;;;;0.40;99.90;;;-0.62;100.00;96254.16;10486653;28;2021;-79
2022/01/20 16:43:59;;;;;;;;;;;0.40;99.90;;;-0.59;100.00;96255.59;10498914;28;1960;-79
2022/01/20 16:49:02;;;;;;;;;;;0.40;99.90;;;-0.57;100.00;96272.91;10487589;28;1661;-80
2022/01/20 16:54:05;;;;;;;;;;;0.40;99.90;;;-0.58;100.00;96273.06;10479465;28;1989;-80
2022/01/20 16:59:08;;;;;;;;;;;0.50;99.90;;;-0.55;100.00;96284.06;10480316;28;1957;-78
2022/01/20 17:04:11;;;;;;;;;;;0.50;99.90;;;-0.53;100.00;96297.09;10480844;28;1991;-78
2022/01/20 17:09:14;;;;;;;;;;;0.50;99.90;;;-0.55;100.00;96292.00;10476876;28;1835;-79
2022/01/20 17:14:17;;;;;;;;;;;0.50;99.90;;;-0.49;100.00;96305.44;10472022;28;1764;-80
2022/01/20 17:19:20;;;;;;;;;;;0.50;99.90;;;-0.49;100.00;96292.25;10480420;28;2018;-81
2022/01/20 17:24:23;;;;;;;;;;;0.90;99.90;;;-0.51;100.00;96323.28;10496145;28;2006;-81
2022/01/20 17:29:26;;;;;;;;;;;0.60;99.90;;;-0.44;100.00;96324.19;10490205;28;1885;-83
2022/01/20 17:34:29;;;;;;;;;;;0.60;99.90;;;-0.41;100.00;96326.44;10507408;28;1430;-81
2022/01/20 17:39:32;;;;;;;;;;;0.60;99.90;;;-0.42;100.00;96330.09;10516791;28;1992;-82
2022/01/20 17:44:36;;;;;;;;;;;0.60;99.90;;;-0.37;100.00;96330.34;10517341;28;1959;-83
2022/01/20 17:49:40;;;;;;;;;;;0.60;99.90;;;-0.37;100.00;96343.53;10513418;28;1981;-81
2022/01/20 17:54:43;;;;;;;;;;;0.70;99.90;;;-0.35;100.00;96352.09;10488865;28;2345;-81
2022/01/20 17:59:47;;;;;;;;;;;1.80;99.90;;;-0.44;100.00;96329.47;10498165;28;1974;-81
2022/01/20 18:04:52;;;;;;;;;;;0.60;99.90;;;-0.56;100.00;96335.25;10508587;28;2029;-82
2022/01/20 18:10:02;;;;;;;;;;;0.50;99.90;;;-0.53;100.00;96333.25;10511174;28;1961;-81
2022/01/20 18:15:05;;;;;;;;;;;0.80;99.90;;;-0.59;100.00;96343.56;10496294;28;1971;-81
2022/01/20 18:20:12;;;;;;;;;;;0.50;99.90;;;-0.61;100.00;96344.75;10518107;28;1898;-82
2022/01/20 18:25:17;;;;;;;;;;;0.50;99.90;;;-0.63;100.00;96365.25;10510492;28;1887;-79
2022/01/20 18:30:21;;;;;;;;;;;0.40;99.90;;;-0.64;100.00;96351.22;10512621;28;2037;-81
2022/01/20 18:35:25;;;;;;;;;;;0.40;99.90;;;-0.66;100.00;96349.78;10511884;28;1656;-77
2022/01/20 18:40:29;;;;;;;;;;;0.40;99.90;;;-0.66;100.00;96342.69;10481282;28;2051;-76
2022/01/20 18:45:32;;;;;;;;;;;0.40;99.90;;;-0.74;100.00;96352.56;10484289;28;1910;-80
2022/01/20 18:50:35;;;;;;;;;;;0.40;99.90;;;-0.79;100.00;96347.84;10477520;28;2353;-79
2022/01/20 18:55:38;;;;;;;;;;;0.30;99.90;;;-0.79;100.00;96347.03;10472979;28;1439;-77
2022/01/20 19:00:41;;;;;;;;;;;0.30;99.90;;;-0.82;100.00;96364.06;10493211;28;1589;-77
2022/01/20 19:05:48;;;;;;;;;;;0.30;99.90;;;-0.86;100.00;96349.59;10525476;28;1914;-78
2022/01/20 19:10:51;;;;;;;;;;;0.20;99.90;;;-0.93;100.00;96351.34;10506308;28;2033;-80
2022/01/20 19:15:55;;;;;;;;;;;0.20;99.90;;;-1.00;100.00;96359.19;10488678;28;1905;-81
2022/01/20 19:20:58;;;;;;;;;;;0.20;99.90;;;-1.07;100.00;96379.44;10482585;28;1989;-77
2022/01/20 19:26:01;;;;;;;;;;;0.40;99.90;;;-1.10;100.00;96383.25;10479669;28;1981;-79
2022/01/20 19:31:06;;;;;;;;;;;0.00;99.90;;;-1.13;100.00;96378.34;10494062;28;2023;-77
2022/01/20 19:36:11;;;;;;;;;;;0.00;99.90;;;-1.18;100.00;96401.00;10481190;28;1966;-77
2022/01/20 19:41:15;;;;;;;;;;;-0.10;99.90;;;-1.23;100.00;96398.09;10476253;28;2003;-76
2022/01/20 19:46:18;;;;;;;;;;;-0.10;99.90;;;-1.30;100.00;96386.66;10486725;28;1959;-80
2022/01/20 19:51:21;;;;;;;;;;;-0.10;99.90;;;-1.44;100.00;96397.03;10503015;28;2053;-78
2022/01/20 19:56:25;;;;;;;;;;;0.70;99.90;;;-1.50;100.00;96396.94;10485367;28;2014;-80
2022/01/20 20:01:30;;;;;;;;;;;-0.20;99.90;;;-1.61;100.00;96402.69;10498768;28;2331;-79
2022/01/20 20:06:33;;;;;;;;;;;0.70;99.90;;;-1.69;100.00;96399.13;10499507;28;1979;-80
2022/01/20 20:11:36;;;;;;;;;;;0.50;99.90;;;-1.67;100.00;96396.31;10508137;28;1904;-80
2022/01/20 20:16:40;;;;;;;;;;;-0.60;99.90;;;-1.77;100.00;96380.78;10509437;28;1939;-78
2022/01/20 20:21:44;;;;;;;;;;;-0.30;99.90;;;-1.82;100.00;96398.94;10495890;28;1497;-79
2022/01/20 20:26:47;;;;;;;;;;;-0.60;99.90;;;-1.92;100.00;96390.47;10472246;28;2375;-78
2022/01/20 20:31:50;;;;;;;;;;;-0.70;99.90;;;-1.95;100.00;96409.28;10475911;28;1991;-77
2022/01/20 20:36:54;;;;;;;;;;;-0.80;99.90;;;-2.00;100.00;96422.19;10527983;28;1324;-78
2022/01/20 20:41:57;;;;;;;;;;;-0.80;99.90;;;-1.97;100.00;96425.28;10523098;28;1859;-74
2022/01/20 20:47:00;;;;;;;;;;;-0.80;99.90;;;-2.06;100.00;96430.81;10494680;28;1994;-76
2022/01/20 20:52:03;;;;;;;;;;;-0.90;99.90;;;-2.05;100.00;96416.63;10494096;28;2021;-77
2022/01/20 20:57:06;;;;;;;;;;;-1.00;99.90;;;-2.12;100.00;96442.88;10489315;28;1928;-79
2022/01/20 21:02:10;;;;;;;;;;;-0.80;99.90;;;-2.09;100.00;96439.06;10525648;28;1763;-77
2022/01/20 21:07:20;;;;;;;;;;;-0.80;99.90;;;-2.06;100.00;96421.06;10520979;28;1903;-80
2022/01/20 21:12:25;;;;;;;;;;;-0.90;99.90;;;-2.10;100.00;96440.03;10517832;28;1899;-77
2022/01/20 21:17:31;;;;;;;;;;;-0.90;99.90;;;-2.11;100.00;96446.31;10519467;28;1600;-77
2022/01/20 21:22:34;;;;;;;;;;;-0.90;99.90;;;-2.19;100.00;96455.94;10509372;28;1935;-78
2022/01/20 21:27:38;;;;;;;;;;;-0.90;99.90;;;-2.21;100.00;96467.66;10500620;28;1941;-81
2022/01/20 21:32:42;;;;;;;;;;;;;;;-2.21;100.00;96467.66;10526289;28;1954;-81
2022/01/20 21:37:45;;;;;;;;;;;;;;;-2.19;100.00;96477.00;10536756;28;1233;-79
2022/01/20 21:42:48;;;;;;;;;;;-1.10;99.90;;;-2.25;100.00;96480.34;10528218;28;1956;-80
2022/01/20 21:47:53;;;;;;;;;;;-0.70;99.90;;;-2.18;100.00;96493.63;10519106;28;2324;-79
2022/01/20 21:52:56;;;;;;;;;;;-1.10;99.90;;;-2.19;100.00;96498.06;10492188;28;2076;-79
2022/01/20 21:57:59;;;;;;;;;;;-1.00;99.90;;;-2.11;100.00;96505.09;10487734;28;1907;-79
2022/01/20 22:03:02;;;;;;;;;;;-0.80;99.90;;;-1.86;100.00;96502.25;10499708;28;1996;-81
2022/01/20 22:08:05;;;;;;;;;;;-0.90;99.90;;;-1.81;100.00;96513.91;10497844;28;1976;-81
2022/01/20 22:13:09;;;;;;;;;;;-0.80;99.90;;;-1.70;100.00;96520.56;10501083;28;2202;-78
2022/01/20 22:18:12;;;;;;;;;;;-0.70;99.90;;;-1.80;100.00;96522.63;10494432;28;2414;-79
2022/01/20 22:23:15;;;;;;;;;;;-0.70;99.90;;;-1.83;100.00;96521.19;10488760;28;1845;-79
2022/01/20 22:28:18;;;;;;;;;;;-0.80;99.90;;;-1.79;100.00;96514.53;10484491;28;1956;-75
2022/01/20 22:33:21;;;;;;;;;;;-0.70;99.90;;;-1.72;100.00;96530.44;10505382;28;1977;-77
2022/01/20 22:38:24;;;;;;;;;;;-0.70;99.90;;;-1.71;100.00;96517.13;10483153;28;1915;-79
2022/01/20 22:43:28;;;;;;;;;;;-0.60;99.90;;;-1.70;100.00;96524.03;10482882;28;1949;-78
2022/01/20 22:48:31;;;;;;;;;;;-0.60;99.90;;;-1.66;100.00;96522.66;10494440;28;1982;-79
2022/01/20 22:53:35;;;;;;;;;;;-0.60;99.90;;;-1.76;100.00;96530.00;10494913;28;2026;-79
2022/01/20 22:58:38;;;;;;;;;;;-0.60;99.90;;;-1.80;100.00;96523.44;10496162;28;1874;-80
2022/01/20 23:03:41;;;;;;;;;;;-0.60;99.90;;;-1.89;100.00;96524.53;10490650;28;1713;-79
2022/01/20 23:08:47;;;;;;;;;;;-0.70;99.90;;;-2.07;100.00;96550.34;10490547;28;1969;-80
2022/01/20 23:13:50;;;;;;;;;;;-0.30;99.90;;;-2.06;100.00;96559.88;10491506;28;1844;-81
2022/01/20 23:18:59;;;;;;;;;;;-0.90;99.90;;;-2.13;100.00;96557.13;10480713;28;1945;-78
2022/01/20 23:24:02;;;;;;;;;;;-0.90;99.90;;;-2.10;100.00;96563.84;10481778;28;1912;-78
2022/01/20 23:29:05;;;;;;;;;;;-0.90;99.90;;;-2.09;100.00;96561.06;10484226;28;1952;-77
2022/01/20 23:34:08;;;;;;;;;;;-0.90;99.90;;;-2.19;100.00;96571.81;10481159;28;2022;-79
2022/01/20 23:39:15;;;;;;;;;;;-1.10;99.90;;;-2.37;100.00;96578.34;10481091;28;1923;-80
2022/01/20 23:44:35;;;;;;;;;;;-1.10;99.90;;;-2.30;100.00;96579.28;10481021;28;1949;-79
2022/01/20 23:49:39;;;;;;;;;;;-1.20;99.90;;;-2.38;100.00;96566.19;10474324;28;2133;-79
2022/01/20 23:54:41;;;;;;;;;;;-1.20;99.90;;;-2.29;100.00;96576.50;10485361;28;2005;-80
2022/01/20 23:59:45;;;;;;;;;;;-1.20;99.90;;;-2.20;100.00;96580.72;10481064;28;2056;-79
